< < Back
Terminal Aerodrome Forecast


Current Version              Previous Versions:   1  2  3  4  5  6  7  8  9  

Terminal Aerodrome Forecast

170
FTUS44 KBMX 261100
TAFMGM
TAF
KMGM 261131Z 2612/2712 29003KT 4SM BR SCT250
      TEMPO 2612/2613 2SM BR
     FM261400 27006KT P6SM FEW050=

Latest METAR

157
SAUS80 KWBC 261300 RRA
MTRMGM
METAR KMGM 261253Z 00000KT 7SM CLR 26/22 A3005 RMK AO2 SLP174
T02610222


USA.gov is the U.S. government's official web portal to all federal, state and local government web resources and services.